Time;durP1;ratioP1;P1;durP2;ratioP2;P2;SDS_P1;SDS_P2;PMS_P1;PMS_P2;Temp;Humidity;BMP_temperature;BMP_pressure;BME280_temperature;BME280_humidity;BME280_pressure;Samples;Min_cycle;Max_cycle;Signal;HPM_P1;HPM_P2
2021/12/26 00:01:43;;;;;;;5.70;2.20;;;-7.50;99.90;;;;;;4974649;28;20547;-83
2021/12/26 00:04:13;;;;;;;7.47;2.78;;;-7.40;99.90;;;;;;4973370;28;20050;-82
2021/12/26 00:06:39;;;;;;;6.32;2.10;;;-7.60;99.90;;;;;;4973239;28;20397;-83
2021/12/26 00:09:05;;;;;;;5.65;2.28;;;-7.60;99.90;;;;;;4974554;28;20057;-84
2021/12/26 00:11:30;;;;;;;6.60;2.30;;;-7.50;99.90;;;;;;4973124;28;20046;-83
2021/12/26 00:13:56;;;;;;;6.53;2.72;;;-7.50;99.90;;;;;;4954483;28;20504;-83
2021/12/26 00:16:24;;;;;;;3.85;2.13;;;-7.50;99.90;;;;;;4956782;28;20068;-83
2021/12/26 00:18:50;;;;;;;3.85;1.67;;;-7.40;99.90;;;;;;4970953;28;20062;-83
2021/12/26 00:21:19;;;;;;;5.85;2.10;;;-7.40;99.90;;;;;;4969639;28;20050;-83
2021/12/26 00:23:48;;;;;;;4.15;2.10;;;-7.40;99.90;;;;;;4972370;28;20082;-83
2021/12/26 00:26:16;;;;;;;7.65;2.00;;;-7.50;99.90;;;;;;4970042;28;20061;-83
2021/12/26 00:28:41;;;;;;;3.72;2.13;;;-7.40;99.90;;;;;;4973144;28;20057;-82
2021/12/26 00:31:10;;;;;;;5.35;2.22;;;-7.50;99.90;;;;;;4989764;28;20112;-82
2021/12/26 00:33:36;;;;;;;6.35;2.60;;;-7.00;99.90;;;;;;4988772;28;20076;-82
2021/12/26 00:36:03;;;;;;;7.03;2.30;;;-7.60;99.90;;;;;;4989187;28;20054;-83
2021/12/26 00:38:30;;;;;;;5.57;2.60;;;-7.90;99.90;;;;;;4973201;28;20093;-83
2021/12/26 00:40:58;;;;;;;6.50;2.05;;;-7.00;99.90;;;;;;4992205;28;20061;-83
2021/12/26 00:43:24;;;;;;;9.20;2.58;;;-7.70;99.90;;;;;;4977868;28;20120;-83
2021/12/26 00:45:50;;;;;;;8.85;3.35;;;-7.70;99.90;;;;;;4995789;28;20089;-82
2021/12/26 00:48:15;;;;;;;6.50;2.35;;;-7.80;99.90;;;;;;4999289;28;20523;-83
2021/12/26 00:50:42;;;;;;;7.60;2.25;;;-7.90;99.90;;;;;;5016039;28;20415;-82
2021/12/26 00:53:08;;;;;;;6.57;2.28;;;-7.90;99.90;;;;;;4981487;28;20056;-82
2021/12/26 00:55:34;;;;;;;6.32;2.75;;;-8.10;99.90;;;;;;4997015;28;20058;-84
2021/12/26 00:58:00;;;;;;;5.60;2.28;;;-7.40;99.90;;;;;;4989540;28;20067;-83
2021/12/26 01:00:30;;;;;;;9.48;2.45;;;-8.20;99.90;;;;;;5015605;28;20049;-84
2021/12/26 01:02:59;;;;;;;6.25;2.28;;;-7.40;99.90;;;;;;5000101;28;20309;-84
2021/12/26 01:05:26;;;;;;;5.47;2.42;;;-8.00;99.90;;;;;;5016136;28;20103;-84
2021/12/26 01:07:58;;;;;;;6.97;2.75;;;-8.30;99.90;;;;;;5015971;28;20051;-83
2021/12/26 01:10:35;;;;;;;4.72;2.58;;;-8.10;99.90;;;;;;5002368;28;20107;-84
2021/12/26 01:13:12;;;;;;;5.95;2.00;;;-8.00;99.90;;;;;;5001303;28;20045;-84
2021/12/26 01:15:38;;;;;;;6.07;2.15;;;-7.90;99.90;;;;;;5016731;28;20080;-84
2021/12/26 01:18:04;;;;;;;5.45;2.28;;;-8.30;99.90;;;;;;5000346;28;20104;-84
2021/12/26 01:20:48;;;;;;;9.95;2.63;;;-8.10;99.90;;;;;;5034018;28;20045;-84
2021/12/26 01:23:16;;;;;;;6.15;2.65;;;-8.30;99.90;;;;;;5033036;28;20487;-83
2021/12/26 01:25:42;;;;;;;4.93;2.13;;;-8.30;99.90;;;;;;5032770;28;20053;-83
2021/12/26 01:28:08;;;;;;;5.90;2.20;;;-8.30;99.90;;;;;;4998098;28;20054;-83
2021/12/26 01:30:38;;;;;;;11.07;2.55;;;-8.40;99.90;;;;;;5017532;28;20083;-83
2021/12/26 01:33:07;;;;;;;7.22;2.95;;;-8.40;99.90;;;;;;5003507;28;20049;-83
2021/12/26 01:35:33;;;;;;;7.90;2.67;;;-7.90;99.90;;;;;;5037984;28;20049;-82
2021/12/26 01:37:58;;;;;;;7.28;2.40;;;-8.40;99.90;;;;;;5002606;28;20602;-83
2021/12/26 01:40:24;;;;;;;9.70;2.67;;;-8.50;99.90;;;;;;5001927;28;20159;-83
2021/12/26 01:42:51;;;;;;;12.93;2.78;;;-8.50;99.90;;;;;;5015613;28;20060;-83
2021/12/26 01:45:17;;;;;;;5.03;2.15;;;-8.40;99.90;;;;;;5019108;28;20526;-82
2021/12/26 01:47:45;;;;;;;6.90;2.33;;;-8.40;99.90;;;;;;5004038;28;20053;-82
2021/12/26 01:50:11;;;;;;;6.78;2.20;;;-8.30;99.90;;;;;;5003669;28;20423;-82
2021/12/26 01:52:37;;;;;;;8.07;2.25;;;-7.80;99.90;;;;;;5002696;28;20052;-81
2021/12/26 01:57:49;;;;;;;4.15;1.83;;;-8.20;99.90;;;;;;5019259;28;20581;-82
2021/12/26 02:00:16;;;;;;;5.00;1.45;;;-8.20;99.90;;;;;;5017712;28;20136;-82
2021/12/26 02:02:42;;;;;;;4.07;1.60;;;-8.00;99.90;;;;;;5038010;28;20057;-81
2021/12/26 02:05:08;;;;;;;6.65;1.77;;;-7.20;99.90;;;;;;5003551;28;20096;-83
2021/12/26 02:07:34;;;;;;;3.40;1.70;;;-7.80;99.90;;;;;;5002824;28;20048;-82
2021/12/26 02:10:43;;;;;;;4.55;1.80;;;-7.90;99.90;;;;;;5004083;28;20050;-84
2021/12/26 02:13:09;;;;;;;3.95;1.65;;;-8.00;99.90;;;;;;5015235;28;20061;-82
2021/12/26 02:15:36;;;;;;;3.47;1.38;;;-7.80;99.90;;;;;;5018359;28;20163;-82
2021/12/26 02:18:05;;;;;;;3.67;1.55;;;-8.10;99.90;;;;;;5017180;28;20097;-82
2021/12/26 02:20:45;;;;;;;3.97;1.73;;;-8.20;99.90;;;;;;5002387;28;20049;-82
2021/12/26 02:23:19;;;;;;;3.05;1.52;;;-8.10;99.90;;;;;;5002968;28;20045;-82
2021/12/26 02:28:16;;;;;;;5.75;1.42;;;-8.30;99.90;;;;;;5037336;28;20068;-83
2021/12/26 02:30:42;;;;;;;6.13;2.13;;;-8.30;99.90;;;;;;5002980;28;20045;-82
2021/12/26 02:33:11;;;;;;;5.78;2.22;;;-8.10;99.90;;;;;;5019214;28;20053;-82
2021/12/26 02:35:38;;;;;;;5.18;1.38;;;-7.30;99.90;;;;;;5019164;28;20068;-82
2021/12/26 02:38:05;;;;;;;4.90;2.25;;;-7.30;99.90;;;;;;5035623;28;20048;-83
2021/12/26 02:40:31;;;;;;;7.85;1.58;;;-7.60;99.90;;;;;;5012528;28;20196;-82
2021/12/26 02:42:56;;;;;;;2.88;1.67;;;-8.30;99.90;;;;;;5006741;28;20634;-82
2021/12/26 02:45:22;;;;;;;5.43;1.70;;;-8.30;99.90;;;;;;4979035;28;20061;-82
2021/12/26 02:47:51;;;;;;;3.38;1.70;;;-8.50;99.90;;;;;;4994447;28;20408;-83
2021/12/26 02:50:20;;;;;;;6.93;1.63;;;-8.60;99.90;;;;;;4988008;28;20050;-83
2021/12/26 02:52:47;;;;;;;3.47;1.80;;;-8.60;99.90;;;;;;4998688;28;20111;-81
2021/12/26 02:55:15;;;;;;;4.90;2.00;;;-8.50;99.90;;;;;;4998600;28;20046;-83
2021/12/26 02:57:41;;;;;;;5.82;1.65;;;-8.40;99.90;;;;;;4980633;28;20054;-83
2021/12/26 03:00:11;;;;;;;9.43;2.08;;;-8.40;99.90;;;;;;4996974;28;20467;-83
2021/12/26 03:02:41;;;;;;;3.40;1.65;;;-8.50;99.90;;;;;;4993580;28;20058;-83
2021/12/26 03:05:07;;;;;;;4.18;1.58;;;-8.60;99.90;;;;;;4971935;28;20056;-83
2021/12/26 03:07:32;;;;;;;8.45;2.10;;;-8.60;99.90;;;;;;4980404;28;20046;-82
2021/12/26 03:09:59;;;;;;;4.30;1.52;;;-8.50;99.90;;;;;;4998509;28;20188;-83
2021/12/26 03:12:25;;;;;;;4.32;1.48;;;-8.50;99.90;;;;;;4998256;28;20053;-83
2021/12/26 03:14:51;;;;;;;6.40;1.92;;;-8.40;99.90;;;;;;5015014;28;20042;-82
2021/12/26 03:17:16;;;;;;;8.10;1.95;;;-8.40;99.90;;;;;;5012759;28;20068;-82
2021/12/26 03:19:42;;;;;;;5.90;2.15;;;-7.80;99.90;;;;;;4995152;28;20045;-83
2021/12/26 03:22:08;;;;;;;4.68;1.98;;;-8.30;99.90;;;;;;4995222;28;20048;-83
2021/12/26 03:24:34;;;;;;;5.35;1.50;;;-8.30;99.90;;;;;;4979328;28;20081;-83
2021/12/26 03:27:03;;;;;;;4.63;1.92;;;-8.30;99.90;;;;;;4994800;28;20119;-83
2021/12/26 03:29:29;;;;;;;4.00;1.63;;;-8.20;99.90;;;;;;5012855;28;20042;-83
2021/12/26 03:31:55;;;;;;;4.20;2.22;;;-8.10;99.90;;;;;;5012334;28;20156;-82
2021/12/26 03:34:21;;;;;;;3.55;1.75;;;-8.20;99.90;;;;;;4978958;28;20042;-83
2021/12/26 03:36:51;;;;;;;6.07;3.88;;;-8.30;99.90;;;;;;5012688;28;20141;-82
2021/12/26 03:39:16;;;;;;;3.88;1.48;;;-8.30;99.90;;;;;;4996106;28;20057;-83
2021/12/26 03:41:43;;;;;;;3.08;1.83;;;-8.20;99.90;;;;;;4996680;28;20519;-82
2021/12/26 03:44:08;;;;;;;2.03;1.30;;;-8.30;99.90;;;;;;5014438;28;20038;-82
2021/12/26 03:46:34;;;;;;;5.15;1.85;;;-8.10;99.90;;;;;;4997920;28;20076;-83
2021/12/26 03:49:04;;;;;;;3.47;1.73;;;-7.30;99.90;;;;;;5012905;28;20045;-83
2021/12/26 03:51:30;;;;;;;3.22;1.67;;;-9.00;99.90;;;;;;5014393;28;20053;-83
2021/12/26 03:53:55;;;;;;;3.08;1.50;;;-7.10;99.90;;;;;;4995725;28;20130;-83
2021/12/26 03:56:21;;;;;;;5.15;1.85;;;-8.20;99.90;;;;;;4995834;28;20059;-83
2021/12/26 03:58:47;;;;;;;5.30;2.05;;;-8.20;99.90;;;;;;4996056;28;20066;-82
2021/12/26 04:01:13;;;;;;;5.43;1.40;;;-8.20;99.90;;;;;;4997608;28;20061;-82
2021/12/26 04:03:39;;;;;;;6.18;1.77;;;-7.50;99.90;;;;;;4979689;28;20064;-83
2021/12/26 04:06:04;;;;;;;4.78;1.75;;;-8.30;99.90;;;;;;4995493;28;20500;-83
2021/12/26 04:08:30;;;;;;;5.00;1.48;;;-8.20;99.90;;;;;;5013175;28;20109;-83
2021/12/26 04:10:56;;;;;;;3.20;1.80;;;-8.20;99.90;;;;;;4996062;28;20103;-83
2021/12/26 04:13:22;;;;;;;4.07;1.75;;;-8.30;99.90;;;;;;4995161;28;20119;-83
2021/12/26 04:15:47;;;;;;;3.95;1.90;;;-8.30;99.90;;;;;;4999143;28;20053;-83
2021/12/26 04:18:13;;;;;;;3.67;1.63;;;-8.10;99.90;;;;;;5017723;28;20404;-83
2021/12/26 04:20:39;;;;;;;4.45;2.17;;;-8.20;99.90;;;;;;5015569;28;20093;-83
2021/12/26 04:23:05;;;;;;;5.60;2.15;;;-8.30;99.90;;;;;;4997247;28;20124;-81
2021/12/26 04:25:31;;;;;;;3.97;2.00;;;-8.30;99.90;;;;;;5015157;28;20096;-82
2021/12/26 04:27:57;;;;;;;5.07;2.38;;;-8.30;99.90;;;;;;4981686;28;20103;-82
2021/12/26 04:30:23;;;;;;;8.05;2.10;;;-8.40;99.90;;;;;;5001527;28;20065;-81
2021/12/26 04:32:50;;;;;;;4.35;1.75;;;-8.50;99.90;;;;;;4985057;28;20046;-82
2021/12/26 04:35:17;;;;;;;5.80;1.88;;;-8.50;99.90;;;;;;4984860;28;20144;-82
2021/12/26 04:37:43;;;;;;;6.35;1.70;;;-8.60;99.90;;;;;;5001596;28;20061;-83
2021/12/26 04:40:10;;;;;;;7.32;1.80;;;-8.00;99.90;;;;;;5001377;28;20519;-82
2021/12/26 04:42:38;;;;;;;5.85;2.13;;;-8.70;99.90;;;;;;5001968;28;20065;-83
2021/12/26 04:45:08;;;;;;;4.68;1.80;;;-8.70;99.90;;;;;;5019892;28;20046;-83
2021/12/26 04:47:34;;;;;;;4.05;1.73;;;-8.70;99.90;;;;;;5000770;28;20455;-83
2021/12/26 04:50:00;;;;;;;3.67;1.58;;;-8.80;99.90;;;;;;5003468;28;20100;-83
2021/12/26 04:52:26;;;;;;;4.72;2.08;;;-8.80;99.90;;;;;;5022101;28;20061;-83
2021/12/26 04:54:52;;;;;;;5.05;1.98;;;-8.70;99.90;;;;;;5003846;28;20038;-83
2021/12/26 04:57:18;;;;;;;5.47;2.17;;;-8.60;99.90;;;;;;4990364;28;20571;-83
2021/12/26 04:59:44;;;;;;;4.43;1.92;;;-7.90;99.90;;;;;;4996978;28;20058;-83
2021/12/26 05:02:11;;;;;;;4.45;1.88;;;-8.40;99.90;;;;;;4979844;28;20111;-83
2021/12/26 05:04:37;;;;;;;5.10;2.13;;;-8.40;99.90;;;;;;4980803;28;20053;-83
2021/12/26 05:07:03;;;;;;;4.35;2.05;;;-8.20;99.90;;;;;;5014192;28;20069;-83
2021/12/26 05:09:29;;;;;;;4.78;2.15;;;-8.30;99.90;;;;;;4979712;28;20057;-84
2021/12/26 05:11:58;;;;;;;4.90;2.20;;;-7.50;99.90;;;;;;4997044;28;20122;-84
2021/12/26 05:14:24;;;;;;;7.13;1.90;;;-7.60;99.90;;;;;;4997187;28;20049;-82
2021/12/26 05:16:50;;;;;;;3.42;1.75;;;-8.30;99.90;;;;;;4997734;28;20053;-83
2021/12/26 05:19:15;;;;;;;7.65;2.75;;;-7.70;99.90;;;;;;4980550;28;20068;-84
2021/12/26 05:21:41;;;;;;;5.97;2.10;;;-8.40;99.90;;;;;;4981652;28;20065;-83
2021/12/26 05:24:07;;;;;;;4.75;2.20;;;-8.40;99.90;;;;;;4997678;28;20060;-83
2021/12/26 05:26:33;;;;;;;6.45;2.00;;;-7.70;99.90;;;;;;5015515;28;20591;-83
2021/12/26 05:28:58;;;;;;;4.18;2.00;;;-8.30;99.90;;;;;;4997737;28;20142;-83
2021/12/26 05:31:24;;;;;;;4.80;2.40;;;-8.50;99.90;;;;;;4998272;28;20053;-84
2021/12/26 05:33:50;;;;;;;4.28;1.98;;;-8.60;99.90;;;;;;4997644;28;20046;-84
2021/12/26 05:36:15;;;;;;;6.38;1.90;;;-8.40;99.90;;;;;;5014365;28;20042;-84
2021/12/26 05:38:42;;;;;;;6.13;2.85;;;-8.40;99.90;;;;;;4996731;28;20061;-84
2021/12/26 05:41:08;;;;;;;5.90;2.63;;;-7.40;99.90;;;;;;4996358;28;20092;-83
2021/12/26 05:43:33;;;;;;;16.23;2.95;;;-7.90;99.90;;;;;;4979175;28;20065;-83
2021/12/26 05:45:59;;;;;;;6.70;2.67;;;-8.30;99.90;;;;;;5012583;28;20125;-83
2021/12/26 05:48:25;;;;;;;5.03;2.33;;;-8.10;99.90;;;;;;4996348;28;20045;-83
2021/12/26 05:50:52;;;;;;;5.07;2.58;;;-8.50;99.90;;;;;;5013518;28;20050;-83
2021/12/26 05:53:19;;;;;;;5.18;2.30;;;-7.40;99.90;;;;;;4981273;28;20088;-83
2021/12/26 05:55:45;;;;;;;4.05;2.22;;;-8.40;99.90;;;;;;4996608;28;20085;-84
2021/12/26 05:58:11;;;;;;;7.30;3.03;;;-8.50;99.90;;;;;;5002915;28;20101;-83
2021/12/26 06:00:36;;;;;;;3.75;1.88;;;-8.60;99.90;;;;;;4978070;28;20066;-83
2021/12/26 06:03:02;;;;;;;5.97;2.25;;;-8.50;99.90;;;;;;4996689;28;20097;-83
2021/12/26 06:05:28;;;;;;;5.55;2.80;;;-8.70;99.90;;;;;;4980886;28;20124;-82
2021/12/26 06:07:54;;;;;;;3.95;2.08;;;-8.50;99.90;;;;;;4982987;28;20054;-82
2021/12/26 06:10:20;;;;;;;5.68;2.85;;;-8.70;99.90;;;;;;4979931;28;20050;-82
2021/12/26 06:12:45;;;;;;;6.22;2.17;;;-8.60;99.90;;;;;;4996386;28;20076;-82
2021/12/26 06:15:13;;;;;;;8.38;2.63;;;-8.70;99.90;;;;;;4978775;28;20069;-82
2021/12/26 06:17:39;;;;;;;5.82;2.42;;;-8.60;99.90;;;;;;4976883;28;20513;-83
2021/12/26 06:20:11;;;;;;;6.10;3.15;;;-8.30;99.90;;;;;;4977469;28;20145;-82
2021/12/26 06:22:37;;;;;;;6.78;3.10;;;-8.70;99.90;;;;;;4962075;28;20086;-83
2021/12/26 06:25:03;;;;;;;6.90;2.83;;;-8.70;99.90;;;;;;4978423;28;20054;-84
2021/12/26 06:27:28;;;;;;;5.05;1.95;;;-8.60;99.90;;;;;;4961685;28;20081;-83
2021/12/26 06:29:54;;;;;;;5.35;2.60;;;-8.60;99.90;;;;;;4974288;28;20118;-84
2021/12/26 06:32:20;;;;;;;5.78;2.72;;;-8.50;99.90;;;;;;4972191;28;20046;-83
2021/12/26 06:34:45;;;;;;;7.10;3.17;;;-7.90;99.90;;;;;;4990373;28;20141;-83
2021/12/26 06:37:11;;;;;;;9.75;2.78;;;-8.50;99.90;;;;;;4989367;28;20046;-84
2021/12/26 06:39:36;;;;;;;5.50;2.45;;;-8.40;99.90;;;;;;4972354;28;20361;-83
2021/12/26 06:42:02;;;;;;;12.80;3.35;;;-8.30;99.90;;;;;;4972731;28;20131;-83
2021/12/26 06:44:28;;;;;;;4.57;2.47;;;-8.20;99.90;;;;;;4988691;28;20058;-83
2021/12/26 06:46:54;;;;;;;7.45;2.20;;;-8.10;99.90;;;;;;4972314;28;20046;-83
2021/12/26 06:49:19;;;;;;;3.65;1.55;;;-8.00;99.90;;;;;;4989868;28;20051;-83
2021/12/26 06:51:46;;;;;;;7.38;2.72;;;-8.00;99.90;;;;;;4989756;28;20047;-83
2021/12/26 06:54:12;;;;;;;4.78;2.75;;;-8.00;99.90;;;;;;4971748;28;20069;-83
2021/12/26 06:56:38;;;;;;;10.13;2.75;;;-7.90;99.90;;;;;;4989634;28;20058;-83
2021/12/26 06:59:04;;;;;;;4.85;2.05;;;-8.00;99.90;;;;;;4988652;28;20382;-83
2021/12/26 07:01:29;;;;;;;5.05;2.05;;;-7.80;99.90;;;;;;4979476;28;20054;-83
2021/12/26 07:03:55;;;;;;;4.25;2.15;;;-7.80;99.90;;;;;;4990921;28;20045;-84
2021/12/26 07:06:21;;;;;;;5.47;3.03;;;-7.80;99.90;;;;;;4989748;28;20627;-83
2021/12/26 07:08:46;;;;;;;4.30;2.40;;;-7.80;99.90;;;;;;4991454;28;20089;-84
2021/12/26 07:11:15;;;;;;;7.60;3.00;;;-7.60;99.90;;;;;;4992064;28;20050;-83
2021/12/26 07:13:41;;;;;;;5.90;3.35;;;-7.20;99.90;;;;;;4992253;28;20058;-84
2021/12/26 07:16:06;;;;;;;6.28;2.85;;;-7.60;99.90;;;;;;4991950;28;20069;-83
2021/12/26 07:18:32;;;;;;;6.35;2.47;;;-7.70;99.90;;;;;;4991370;28;20046;-84
2021/12/26 07:20:58;;;;;;;6.85;2.88;;;-7.60;99.90;;;;;;5008132;28;20061;-83
2021/12/26 07:23:23;;;;;;;7.55;2.10;;;-7.40;99.90;;;;;;4990957;28;20058;-83
2021/12/26 07:25:49;;;;;;;12.65;3.30;;;-7.30;99.90;;;;;;5007454;28;20093;-83
2021/12/26 07:28:15;;;;;;;4.53;2.13;;;-7.30;99.90;;;;;;4991613;28;20061;-84
2021/12/26 07:30:40;;;;;;;4.63;2.72;;;-7.30;99.90;;;;;;4991189;28;20147;-84
2021/12/26 07:33:08;;;;;;;9.70;2.95;;;-7.30;99.90;;;;;;5008998;28;20180;-83
2021/12/26 07:35:33;;;;;;;5.75;2.70;;;-7.00;99.90;;;;;;4990853;28;20057;-83
2021/12/26 07:37:59;;;;;;;6.22;3.10;;;-7.40;99.90;;;;;;5008663;28;20081;-83
2021/12/26 07:40:27;;;;;;;8.57;2.00;;;-7.30;99.90;;;;;;5008069;28;20046;-84
2021/12/26 07:42:53;;;;;;;8.57;3.25;;;-7.40;99.90;;;;;;4990751;28;20049;-84
2021/12/26 07:45:18;;;;;;;5.45;2.63;;;-7.30;99.90;;;;;;5008734;28;20772;-83
2021/12/26 07:47:44;;;;;;;7.82;2.97;;;-7.30;99.90;;;;;;4990223;28;20060;-83
2021/12/26 07:50:10;;;;;;;5.50;2.80;;;-7.30;99.90;;;;;;5006848;28;20058;-83
2021/12/26 07:52:40;;;;;;;4.93;2.30;;;-7.30;99.90;;;;;;4991328;28;20054;-83
2021/12/26 07:55:10;;;;;;;5.75;3.00;;;-7.40;99.90;;;;;;5008114;28;20048;-83
2021/12/26 07:57:36;;;;;;;5.25;2.72;;;-7.30;99.90;;;;;;5008386;28;20054;-83
2021/12/26 08:00:03;;;;;;;5.97;2.80;;;-7.20;99.90;;;;;;5007037;28;20124;-83
2021/12/26 08:02:28;;;;;;;7.72;2.70;;;-7.20;99.90;;;;;;4990329;28;20081;-84
2021/12/26 08:04:54;;;;;;;8.35;3.58;;;-7.10;99.90;;;;;;5008494;28;20081;-83
2021/12/26 08:07:20;;;;;;;9.65;2.90;;;-7.40;99.90;;;;;;5006483;28;20621;-83
2021/12/26 08:09:45;;;;;;;4.22;2.53;;;-7.30;99.90;;;;;;5006491;28;20133;-83
2021/12/26 08:12:11;;;;;;;7.28;3.03;;;-7.20;99.90;;;;;;5008082;28;20090;-83
2021/12/26 08:14:37;;;;;;;6.32;3.03;;;-7.10;99.90;;;;;;5007963;28;20066;-83
2021/12/26 08:17:03;;;;;;;7.65;2.83;;;-7.00;99.90;;;;;;4990174;28;20463;-84
2021/12/26 08:19:29;;;;;;;6.35;2.95;;;-7.00;99.90;;;;;;4990139;28;20100;-83
2021/12/26 08:21:54;;;;;;;5.68;3.25;;;-7.00;99.90;;;;;;4990261;28;20488;-83
2021/12/26 08:24:22;;;;;;;9.05;3.47;;;-6.90;99.90;;;;;;4989956;28;20092;-83
2021/12/26 08:26:51;;;;;;;5.30;2.90;;;-6.90;99.90;;;;;;5007782;28;20077;-83
2021/12/26 08:29:20;;;;;;;8.85;3.30;;;-6.90;99.90;;;;;;4982602;28;20523;-83
2021/12/26 08:31:46;;;;;;;6.80;2.58;;;-6.60;99.90;;;;;;4974865;28;20050;-83
2021/12/26 08:34:19;;;;;;;7.25;3.63;;;-6.90;99.90;;;;;;4974139;28;20145;-84
2021/12/26 08:36:44;;;;;;;7.28;3.17;;;-6.80;99.90;;;;;;5014933;28;20081;-83
2021/12/26 08:39:10;;;;;;;6.25;3.60;;;-6.80;99.90;;;;;;5007761;28;20062;-83
2021/12/26 08:41:37;;;;;;;6.38;3.13;;;-6.80;99.90;;;;;;4990981;28;20073;-83
2021/12/26 08:44:05;;;;;;;9.65;3.47;;;-6.80;99.90;;;;;;5011264;28;20426;-84
2021/12/26 08:46:34;;;;;;;6.55;3.72;;;-6.00;99.90;;;;;;4977432;28;20050;-83
2021/12/26 08:48:59;;;;;;;6.72;3.65;;;-6.70;99.90;;;;;;4977055;28;20045;-83
2021/12/26 08:51:25;;;;;;;10.80;4.07;;;-6.50;99.90;;;;;;4976427;28;20153;-84
2021/12/26 08:53:51;;;;;;;5.78;2.38;;;-6.50;99.90;;;;;;4976917;28;20050;-83
2021/12/26 08:56:16;;;;;;;8.65;3.58;;;-6.50;99.90;;;;;;5012545;28;20057;-83
2021/12/26 08:58:42;;;;;;;9.90;3.85;;;-6.10;99.90;;;;;;5025923;28;20457;-83
2021/12/26 09:01:08;;;;;;;6.35;3.10;;;-5.70;99.90;;;;;;5001260;28;20139;-83
2021/12/26 09:03:37;;;;;;;5.88;2.97;;;-6.30;99.90;;;;;;4982163;28;20050;-83
2021/12/26 09:06:05;;;;;;;7.25;3.30;;;-6.30;99.90;;;;;;4980856;28;20096;-83
2021/12/26 09:08:30;;;;;;;9.68;3.53;;;-6.20;99.90;;;;;;4997515;28;20050;-84
2021/12/26 09:10:56;;;;;;;4.93;3.08;;;-5.50;99.90;;;;;;4979931;28;20625;-83
2021/12/26 09:13:22;;;;;;;5.85;3.20;;;-6.10;99.90;;;;;;4988046;28;20129;-83
2021/12/26 09:15:47;;;;;;;5.20;3.28;;;-5.90;99.90;;;;;;4997774;28;20112;-83
2021/12/26 09:18:13;;;;;;;5.70;3.03;;;-5.90;99.90;;;;;;5013429;28;20499;-83
2021/12/26 09:20:39;;;;;;;5.45;3.15;;;-5.80;99.90;;;;;;4995975;28;20060;-83
2021/12/26 09:23:04;;;;;;;7.13;3.90;;;-4.90;99.90;;;;;;4995036;28;20084;-83
2021/12/26 09:25:30;;;;;;;6.93;4.15;;;-5.60;99.90;;;;;;5013298;28;20081;-84
2021/12/26 09:27:56;;;;;;;5.97;2.90;;;-4.60;99.90;;;;;;4996809;28;20092;-83
2021/12/26 09:30:22;;;;;;;9.98;3.85;;;-4.80;99.90;;;;;;4992325;28;20107;-84
2021/12/26 09:32:48;;;;;;;5.97;3.45;;;-4.70;99.90;;;;;;4993114;28;20065;-84
2021/12/26 09:35:14;;;;;;;5.75;3.25;;;-5.30;99.90;;;;;;4992168;28;20050;-83
2021/12/26 09:37:40;;;;;;;3.85;2.42;;;-4.80;99.90;;;;;;4976770;28;20522;-83
2021/12/26 09:40:06;;;;;;;4.30;2.35;;;-5.20;99.90;;;;;;4992588;28;20049;-84
2021/12/26 09:42:33;;;;;;;5.40;3.22;;;-5.20;99.90;;;;;;4991407;28;20497;-83
2021/12/26 09:45:00;;;;;;;5.80;3.50;;;-5.10;99.90;;;;;;5008349;28;20493;-83
2021/12/26 09:47:26;;;;;;;5.28;3.20;;;-5.00;99.90;;;;;;5005458;28;20088;-83
2021/12/26 09:49:51;;;;;;;5.63;3.05;;;-5.00;99.90;;;;;;5011548;28;20072;-84
2021/12/26 09:52:17;;;;;;;5.03;3.15;;;-5.00;99.90;;;;;;5029265;28;20566;-83
2021/12/26 09:54:45;;;;;;;6.70;2.78;;;-4.90;99.90;;;;;;5029607;28;20515;-83
2021/12/26 09:57:11;;;;;;;5.70;3.35;;;-4.80;99.90;;;;;;5030084;28;20064;-81
2021/12/26 09:59:37;;;;;;;5.35;3.40;;;-4.70;99.90;;;;;;4997270;28;20050;-83
2021/12/26 10:02:13;;;;;;;5.50;3.33;;;-4.60;99.90;;;;;;4977319;28;20049;-84
2021/12/26 10:04:40;;;;;;;8.70;3.90;;;-4.80;99.90;;;;;;5010673;28;20049;-83
2021/12/26 10:07:18;;;;;;;11.50;2.72;;;-4.50;99.90;;;;;;4993229;28;20183;-83
2021/12/26 10:09:47;;;;;;;12.75;2.83;;;-4.50;99.90;;;;;;4976880;28;20053;-84
2021/12/26 10:12:15;;;;;;;7.68;3.05;;;-3.90;99.90;;;;;;4977233;28;20050;-83
2021/12/26 10:14:43;;;;;;;8.30;4.03;;;-4.00;99.90;;;;;;4975849;28;20054;-84
2021/12/26 10:17:13;;;;;;;6.72;3.40;;;-4.20;99.90;;;;;;5010807;28;20049;-83
2021/12/26 10:19:41;;;;;;;12.05;3.20;;;-4.20;99.90;;;;;;5011115;28;20071;-83
2021/12/26 10:22:10;;;;;;;5.28;2.55;;;-4.10;99.90;;;;;;4993529;28;20052;-83
2021/12/26 10:24:38;;;;;;;6.55;3.20;;;-4.00;99.90;;;;;;4976019;28;20061;-83
2021/12/26 10:27:24;;;;;;;6.80;2.92;;;-3.90;99.90;;;;;;5011393;28;20054;-83
2021/12/26 10:29:54;;;;;;;6.10;3.35;;;-3.90;99.90;;;;;;5014549;28;20034;-84
2021/12/26 10:32:21;;;;;;;7.65;3.80;;;-3.70;99.90;;;;;;5006805;28;20077;-83
2021/12/26 10:34:58;;;;;;;5.40;3.05;;;-3.70;99.90;;;;;;4992454;28;20057;-83
2021/12/26 10:37:28;;;;;;;7.50;3.55;;;-3.60;99.90;;;;;;4979508;28;20062;-81
2021/12/26 10:40:04;;;;;;;9.38;4.32;;;-3.60;99.90;;;;;;5006739;28;20104;-83
2021/12/26 10:42:33;;;;;;;6.95;3.17;;;-3.40;99.90;;;;;;4993095;28;20085;-84
2021/12/26 10:45:10;;;;;;;6.15;2.80;;;-3.00;99.90;;;;;;4991321;28;20473;-84
2021/12/26 10:47:38;;;;;;;7.25;3.60;;;-3.30;99.90;;;;;;4976113;28;20082;-84
2021/12/26 10:50:11;;;;;;;3.65;2.08;;;-4.00;99.90;;;;;;4975100;28;20054;-81
2021/12/26 10:52:41;;;;;;;6.47;2.78;;;-3.20;99.90;;;;;;4992001;28;20048;-83
2021/12/26 10:55:13;;;;;;;7.70;3.63;;;-3.10;99.90;;;;;;4975177;28;20772;-83
2021/12/26 10:57:44;;;;;;;22.13;4.18;;;-3.10;99.90;;;;;;5010517;28;20054;-83
2021/12/26 11:00:14;;;;;;;5.63;2.90;;;-3.00;99.90;;;;;;4992323;28;20053;-83
2021/12/26 11:02:47;;;;;;;6.68;3.05;;;-2.90;99.90;;;;;;4992755;28;20046;-83
2021/12/26 11:05:16;;;;;;;5.70;3.22;;;-2.90;99.90;;;;;;4972029;28;20196;-83
2021/12/26 11:07:45;;;;;;;7.10;2.97;;;-2.90;99.90;;;;;;4965246;28;20046;-83
2021/12/26 11:10:17;;;;;;;7.88;2.92;;;-2.90;99.90;;;;;;4974755;28;20420;-83
2021/12/26 11:12:49;;;;;;;4.72;2.25;;;-2.80;99.90;;;;;;4991703;28;20053;-83
2021/12/26 11:15:16;;;;;;;6.65;2.67;;;-2.80;99.90;;;;;;4975406;28;20050;-83
2021/12/26 11:17:49;;;;;;;5.60;2.83;;;-2.70;99.90;;;;;;4990881;28;20386;-83
2021/12/26 11:20:47;;;;;;;12.93;3.72;;;-2.70;99.90;;;;;;4974275;28;20108;-83
2021/12/26 11:23:16;;;;;;;7.53;2.88;;;-2.70;99.90;;;;;;4983192;28;20417;-84
2021/12/26 11:25:47;;;;;;;3.33;1.90;;;-2.60;99.90;;;;;;4984376;28;20111;-83
2021/12/26 11:28:14;;;;;;;5.15;2.30;;;-2.60;99.90;;;;;;4974833;28;20061;-83
2021/12/26 11:30:42;;;;;;;5.25;2.83;;;-2.50;99.90;;;;;;5009084;28;20062;-84
2021/12/26 11:33:09;;;;;;;10.07;2.88;;;-2.50;99.90;;;;;;5007524;28;20050;-83
2021/12/26 11:35:37;;;;;;;5.68;2.33;;;-2.40;99.90;;;;;;4973729;28;20038;-84
2021/12/26 11:38:03;;;;;;;7.65;2.45;;;-2.40;99.90;;;;;;4973805;28;20587;-84
2021/12/26 11:40:30;;;;;;;7.20;3.05;;;-2.30;99.90;;;;;;5007942;28;20465;-83
2021/12/26 11:43:19;;;;;;;6.68;2.40;;;-2.30;99.90;;;;;;5007774;28;20366;-83
2021/12/26 11:45:54;;;;;;;6.22;2.85;;;-2.30;99.90;;;;;;5007905;28;20393;-84
2021/12/26 11:48:45;;;;;;;6.15;2.67;;;-2.20;99.90;;;;;;4990773;28;20045;-83
2021/12/26 11:51:43;;;;;;;6.97;3.05;;;-2.20;99.90;;;;;;4989544;28;20062;-84
2021/12/26 11:54:33;;;;;;;4.55;2.08;;;-1.50;99.90;;;;;;4948195;28;20050;-84
2021/12/26 11:57:25;;;;;;;6.05;1.90;;;-1.50;99.90;;;;;;4966528;28;20049;-84
2021/12/26 12:00:10;;;;;;;6.22;3.35;;;-2.00;99.90;;;;;;5007950;28;20111;-83
2021/12/26 12:02:45;;;;;;;4.05;2.22;;;-1.90;99.90;;;;;;4990162;28;20082;-83
2021/12/26 12:05:12;;;;;;;6.57;3.10;;;-1.90;99.90;;;;;;5008357;28;20595;-84
2021/12/26 12:08:00;;;;;;;6.13;2.65;;;-1.80;99.90;;;;;;4974064;28;20505;-84
2021/12/26 12:10:44;;;;;;;6.15;3.13;;;-1.80;99.90;;;;;;4973712;28;20069;-84
2021/12/26 12:13:26;;;;;;;5.00;2.35;;;-1.10;99.90;;;;;;4989958;28;20177;-84
2021/12/26 12:16:24;;;;;;;4.38;2.50;;;-1.60;99.90;;;;;;4973831;28;20053;-84
2021/12/26 12:18:50;;;;;;;6.20;2.63;;;-1.50;99.90;;;;;;4962401;28;20146;-85
2021/12/26 12:21:18;;;;;;;5.70;2.80;;;-1.50;99.90;;;;;;4977066;28;20489;-85
2021/12/26 12:24:10;;;;;;;7.18;3.33;;;-1.40;99.90;;;;;;4962700;28;20105;-85
2021/12/26 12:26:38;;;;;;;5.70;3.33;;;-1.30;99.90;;;;;;4959361;28;20050;-84
2021/12/26 12:29:04;;;;;;;7.72;2.80;;;-1.20;99.90;;;;;;4970792;28;20050;-83
2021/12/26 12:31:30;;;;;;;6.07;3.08;;;-0.70;99.90;;;;;;4989666;28;20204;-84
2021/12/26 12:34:06;;;;;;;4.70;2.20;;;-1.10;99.90;;;;;;4972248;28;20053;-84
2021/12/26 12:36:34;;;;;;;5.55;2.63;;;-1.10;99.90;;;;;;5009704;28;20102;-83
2021/12/26 12:39:21;;;;;;;7.43;4.25;;;-0.80;99.90;;;;;;4992819;28;20072;-84
2021/12/26 12:41:53;;;;;;;5.70;2.55;;;-1.00;99.90;;;;;;4999079;28;20077;-84
2021/12/26 12:44:28;;;;;;;7.47;3.40;;;-1.20;99.90;;;;;;4975803;28;20058;-84
2021/12/26 12:47:07;;;;;;;9.23;4.25;;;-1.00;99.90;;;;;;4976201;28;20050;-84
2021/12/26 12:50:01;;;;;;;6.95;3.40;;;-0.90;99.90;;;;;;4992083;28;20092;-84
2021/12/26 12:52:45;;;;;;;5.45;2.92;;;-0.80;99.90;;;;;;4992265;28;20049;-84
2021/12/26 12:55:41;;;;;;;7.38;3.50;;;-0.90;99.90;;;;;;4974850;28;20117;-84
2021/12/26 12:58:21;;;;;;;6.43;3.35;;;-0.80;99.90;;;;;;4968388;28;20117;-84